sensor_id;sensor_type;location;lat;lon;timestamp;P1;durP1;ratioP1;P2;durP2;ratioP2
67819;SDS011;54618;52.018;5.576;2023-01-28T00:00:28;1.92;;;0.93;;
67819;SDS011;54618;52.018;5.576;2023-01-28T00:02:53;2.65;;;1.20;;
67819;SDS011;54618;52.018;5.576;2023-01-28T00:05:19;3.08;;;1.20;;
67819;SDS011;54618;52.018;5.576;2023-01-28T00:07:47;2.58;;;0.90;;
67819;SDS011;54618;52.018;5.576;2023-01-28T00:10:13;1.88;;;0.88;;
67819;SDS011;54618;52.018;5.576;2023-01-28T00:12:39;1.45;;;0.90;;
67819;SDS011;54618;52.018;5.576;2023-01-28T00:15:05;2.28;;;1.08;;
67819;SDS011;54618;52.018;5.576;2023-01-28T00:17:31;2.13;;;1.00;;
67819;SDS011;54618;52.018;5.576;2023-01-28T00:19:56;1.85;;;1.00;;
67819;SDS011;54618;52.018;5.576;2023-01-28T00:22:22;2.70;;;0.90;;
67819;SDS011;54618;52.018;5.576;2023-01-28T00:24:48;1.95;;;1.13;;
67819;SDS011;54618;52.018;5.576;2023-01-28T00:27:13;1.88;;;1.00;;
67819;SDS011;54618;52.018;5.576;2023-01-28T00:29:39;1.42;;;0.77;;
67819;SDS011;54618;52.018;5.576;2023-01-28T00:32:05;1.88;;;1.05;;
67819;SDS011;54618;52.018;5.576;2023-01-28T00:34:30;1.77;;;1.00;;
67819;SDS011;54618;52.018;5.576;2023-01-28T00:36:56;1.63;;;1.00;;
67819;SDS011;54618;52.018;5.576;2023-01-28T00:39:25;1.60;;;0.82;;
67819;SDS011;54618;52.018;5.576;2023-01-28T00:41:51;1.25;;;0.90;;
67819;SDS011;54618;52.018;5.576;2023-01-28T00:44:18;1.83;;;0.98;;
67819;SDS011;54618;52.018;5.576;2023-01-28T00:46:43;2.75;;;1.00;;
67819;SDS011;54618;52.018;5.576;2023-01-28T00:49:09;1.98;;;0.90;;
67819;SDS011;54618;52.018;5.576;2023-01-28T00:51:35;2.13;;;0.90;;
67819;SDS011;54618;52.018;5.576;2023-01-28T00:54:00;2.88;;;1.30;;
67819;SDS011;54618;52.018;5.576;2023-01-28T00:56:26;1.52;;;1.00;;
67819;SDS011;54618;52.018;5.576;2023-01-28T00:58:52;3.63;;;1.10;;
67819;SDS011;54618;52.018;5.576;2023-01-28T01:01:19;1.27;;;1.00;;
67819;SDS011;54618;52.018;5.576;2023-01-28T01:03:46;1.55;;;0.80;;
67819;SDS011;54618;52.018;5.576;2023-01-28T01:06:18;1.42;;;1.00;;
67819;SDS011;54618;52.018;5.576;2023-01-28T01:08:43;1.60;;;1.10;;
67819;SDS011;54618;52.018;5.576;2023-01-28T01:11:13;1.83;;;1.00;;
67819;SDS011;54618;52.018;5.576;2023-01-28T01:13:39;2.70;;;1.30;;
67819;SDS011;54618;52.018;5.576;2023-01-28T01:16:07;1.20;;;0.90;;
67819;SDS011;54618;52.018;5.576;2023-01-28T01:18:40;2.05;;;1.30;;
67819;SDS011;54618;52.018;5.576;2023-01-28T01:21:07;1.33;;;1.00;;
67819;SDS011;54618;52.018;5.576;2023-01-28T01:23:38;1.85;;;1.02;;
67819;SDS011;54618;52.018;5.576;2023-01-28T01:26:04;1.75;;;1.23;;
67819;SDS011;54618;52.018;5.576;2023-01-28T01:28:31;1.65;;;1.10;;
67819;SDS011;54618;52.018;5.576;2023-01-28T01:31:00;1.83;;;1.00;;
67819;SDS011;54618;52.018;5.576;2023-01-28T01:33:30;1.95;;;1.17;;
67819;SDS011;54618;52.018;5.576;2023-01-28T01:35:56;1.92;;;1.20;;
67819;SDS011;54618;52.018;5.576;2023-01-28T01:38:23;1.67;;;1.08;;
67819;SDS011;54618;52.018;5.576;2023-01-28T01:40:49;2.22;;;1.30;;
67819;SDS011;54618;52.018;5.576;2023-01-28T01:43:16;1.50;;;1.00;;
67819;SDS011;54618;52.018;5.576;2023-01-28T01:45:42;1.90;;;1.20;;
67819;SDS011;54618;52.018;5.576;2023-01-28T01:48:32;1.73;;;1.10;;
67819;SDS011;54618;52.018;5.576;2023-01-28T01:51:00;1.80;;;1.10;;
67819;SDS011;54618;52.018;5.576;2023-01-28T01:53:30;1.80;;;1.20;;
67819;SDS011;54618;52.018;5.576;2023-01-28T01:55:59;1.90;;;1.10;;
67819;SDS011;54618;52.018;5.576;2023-01-28T01:58:29;1.70;;;1.20;;
67819;SDS011;54618;52.018;5.576;2023-01-28T02:00:58;1.40;;;0.95;;
67819;SDS011;54618;52.018;5.576;2023-01-28T02:03:28;1.92;;;1.33;;
67819;SDS011;54618;52.018;5.576;2023-01-28T02:06:03;1.63;;;1.10;;
67819;SDS011;54618;52.018;5.576;2023-01-28T02:08:28;2.40;;;1.30;;
67819;SDS011;54618;52.018;5.576;2023-01-28T02:10:55;1.77;;;1.25;;
67819;SDS011;54618;52.018;5.576;2023-01-28T02:15:52;1.95;;;1.23;;
67819;SDS011;54618;52.018;5.576;2023-01-28T02:18:19;2.40;;;1.40;;
67819;SDS011;54618;52.018;5.576;2023-01-28T02:23:54;2.00;;;1.17;;
67819;SDS011;54618;52.018;5.576;2023-01-28T02:29:16;1.52;;;1.10;;
67819;SDS011;54618;52.018;5.576;2023-01-28T02:31:57;1.90;;;1.27;;
67819;SDS011;54618;52.018;5.576;2023-01-28T02:37:28;2.30;;;1.40;;
67819;SDS011;54618;52.018;5.576;2023-01-28T02:40:13;2.10;;;1.23;;
67819;SDS011;54618;52.018;5.576;2023-01-28T02:42:43;2.00;;;1.45;;
67819;SDS011;54618;52.018;5.576;2023-01-28T02:47:43;1.75;;;1.30;;
67819;SDS011;54618;52.018;5.576;2023-01-28T02:50:21;2.10;;;1.15;;
67819;SDS011;54618;52.018;5.576;2023-01-28T02:52:55;1.73;;;1.08;;
67819;SDS011;54618;52.018;5.576;2023-01-28T02:55:57;2.03;;;1.20;;
67819;SDS011;54618;52.018;5.576;2023-01-28T03:01:17;2.00;;;1.30;;
67819;SDS011;54618;52.018;5.576;2023-01-28T03:03:57;3.10;;;1.10;;
67819;SDS011;54618;52.018;5.576;2023-01-28T03:06:29;2.08;;;0.90;;
67819;SDS011;54618;52.018;5.576;2023-01-28T03:09:05;1.85;;;0.98;;
67819;SDS011;54618;52.018;5.576;2023-01-28T03:12:08;1.95;;;0.88;;
67819;SDS011;54618;52.018;5.576;2023-01-28T03:15:35;1.33;;;0.80;;
67819;SDS011;54618;52.018;5.576;2023-01-28T03:21:07;1.10;;;0.77;;
67819;SDS011;54618;52.018;5.576;2023-01-28T03:27:05;1.00;;;0.70;;
67819;SDS011;54618;52.018;5.576;2023-01-28T03:29:59;1.02;;;0.80;;
67819;SDS011;54618;52.018;5.576;2023-01-28T03:32:49;0.80;;;0.70;;
67819;SDS011;54618;52.018;5.576;2023-01-28T03:35:35;1.30;;;0.80;;
67819;SDS011;54618;52.018;5.576;2023-01-28T03:38:19;0.95;;;0.70;;
67819;SDS011;54618;52.018;5.576;2023-01-28T03:40:58;1.05;;;0.77;;
67819;SDS011;54618;52.018;5.576;2023-01-28T03:43:25;1.23;;;0.80;;
67819;SDS011;54618;52.018;5.576;2023-01-28T03:45:51;1.10;;;0.80;;
67819;SDS011;54618;52.018;5.576;2023-01-28T03:48:20;0.82;;;0.70;;
67819;SDS011;54618;52.018;5.576;2023-01-28T03:53:13;1.23;;;0.80;;
67819;SDS011;54618;52.018;5.576;2023-01-28T03:55:40;1.13;;;0.80;;
67819;SDS011;54618;52.018;5.576;2023-01-28T03:58:06;0.90;;;0.70;;
67819;SDS011;54618;52.018;5.576;2023-01-28T04:00:35;1.02;;;0.70;;
67819;SDS011;54618;52.018;5.576;2023-01-28T04:03:06;1.10;;;0.73;;
67819;SDS011;54618;52.018;5.576;2023-01-28T04:05:41;1.08;;;0.77;;
67819;SDS011;54618;52.018;5.576;2023-01-28T04:08:11;1.15;;;0.88;;
67819;SDS011;54618;52.018;5.576;2023-01-28T04:10:37;1.10;;;0.85;;
67819;SDS011;54618;52.018;5.576;2023-01-28T04:13:04;1.35;;;0.93;;
67819;SDS011;54618;52.018;5.576;2023-01-28T04:15:30;0.80;;;0.70;;
67819;SDS011;54618;52.018;5.576;2023-01-28T04:17:56;1.20;;;0.73;;
67819;SDS011;54618;52.018;5.576;2023-01-28T04:20:22;1.10;;;0.90;;
67819;SDS011;54618;52.018;5.576;2023-01-28T04:22:47;0.80;;;0.70;;
67819;SDS011;54618;52.018;5.576;2023-01-28T04:25:13;1.15;;;0.90;;
67819;SDS011;54618;52.018;5.576;2023-01-28T04:27:38;1.50;;;0.90;;
67819;SDS011;54618;52.018;5.576;2023-01-28T04:30:04;1.35;;;0.80;;
67819;SDS011;54618;52.018;5.576;2023-01-28T04:32:30;1.48;;;0.90;;
67819;SDS011;54618;52.018;5.576;2023-01-28T04:34:56;1.05;;;0.80;;
67819;SDS011;54618;52.018;5.576;2023-01-28T04:37:21;0.95;;;0.75;;
67819;SDS011;54618;52.018;5.576;2023-01-28T04:39:47;1.30;;;0.77;;
67819;SDS011;54618;52.018;5.576;2023-01-28T04:42:12;1.20;;;0.73;;
67819;SDS011;54618;52.018;5.576;2023-01-28T04:44:38;0.90;;;0.75;;
67819;SDS011;54618;52.018;5.576;2023-01-28T04:47:03;0.90;;;0.70;;
67819;SDS011;54618;52.018;5.576;2023-01-28T04:49:29;1.17;;;0.80;;
67819;SDS011;54618;52.018;5.576;2023-01-28T04:51:54;1.23;;;0.80;;
67819;SDS011;54618;52.018;5.576;2023-01-28T04:54:20;0.90;;;0.80;;
67819;SDS011;54618;52.018;5.576;2023-01-28T04:56:45;0.73;;;0.60;;
67819;SDS011;54618;52.018;5.576;2023-01-28T04:59:11;1.05;;;0.80;;
67819;SDS011;54618;52.018;5.576;2023-01-28T05:01:36;1.30;;;0.80;;
67819;SDS011;54618;52.018;5.576;2023-01-28T05:04:02;1.02;;;0.70;;
67819;SDS011;54618;52.018;5.576;2023-01-28T05:06:32;1.15;;;0.80;;
67819;SDS011;54618;52.018;5.576;2023-01-28T05:08:58;1.17;;;0.80;;
67819;SDS011;54618;52.018;5.576;2023-01-28T05:11:24;0.77;;;0.60;;
67819;SDS011;54618;52.018;5.576;2023-01-28T05:13:50;2.00;;;0.80;;
67819;SDS011;54618;52.018;5.576;2023-01-28T05:16:15;1.05;;;0.70;;
67819;SDS011;54618;52.018;5.576;2023-01-28T05:18:41;1.25;;;0.75;;
67819;SDS011;54618;52.018;5.576;2023-01-28T05:21:07;1.20;;;0.80;;
67819;SDS011;54618;52.018;5.576;2023-01-28T05:23:33;1.10;;;0.80;;
67819;SDS011;54618;52.018;5.576;2023-01-28T05:25:58;0.93;;;0.70;;
67819;SDS011;54618;52.018;5.576;2023-01-28T05:28:24;1.20;;;0.80;;
67819;SDS011;54618;52.018;5.576;2023-01-28T05:30:49;0.70;;;0.60;;
67819;SDS011;54618;52.018;5.576;2023-01-28T05:33:15;0.95;;;0.70;;
67819;SDS011;54618;52.018;5.576;2023-01-28T05:35:41;1.30;;;0.90;;
67819;SDS011;54618;52.018;5.576;2023-01-28T05:38:07;0.77;;;0.73;;
67819;SDS011;54618;52.018;5.576;2023-01-28T05:40:33;1.63;;;0.90;;
67819;SDS011;54618;52.018;5.576;2023-01-28T05:42:59;1.38;;;0.88;;
67819;SDS011;54618;52.018;5.576;2023-01-28T05:45:24;1.40;;;0.85;;
67819;SDS011;54618;52.018;5.576;2023-01-28T05:47:50;1.05;;;0.77;;
67819;SDS011;54618;52.018;5.576;2023-01-28T05:50:16;1.10;;;0.70;;
67819;SDS011;54618;52.018;5.576;2023-01-28T05:52:41;1.15;;;0.80;;
67819;SDS011;54618;52.018;5.576;2023-01-28T05:55:07;0.80;;;0.50;;
67819;SDS011;54618;52.018;5.576;2023-01-28T05:57:33;0.90;;;0.63;;
67819;SDS011;54618;52.018;5.576;2023-01-28T05:59:59;0.93;;;0.60;;
67819;SDS011;54618;52.018;5.576;2023-01-28T06:02:24;0.55;;;0.55;;
67819;SDS011;54618;52.018;5.576;2023-01-28T06:04:50;0.70;;;0.60;;
67819;SDS011;54618;52.018;5.576;2023-01-28T06:07:16;1.20;;;0.60;;
67819;SDS011;54618;52.018;5.576;2023-01-28T06:09:44;0.73;;;0.60;;
67819;SDS011;54618;52.018;5.576;2023-01-28T06:12:11;1.73;;;0.50;;
67819;SDS011;54618;52.018;5.576;2023-01-28T06:14:36;0.98;;;0.60;;
67819;SDS011;54618;52.018;5.576;2023-01-28T06:17:02;0.82;;;0.50;;
67819;SDS011;54618;52.018;5.576;2023-01-28T06:19:28;1.45;;;0.70;;
67819;SDS011;54618;52.018;5.576;2023-01-28T06:21:53;0.82;;;0.70;;
67819;SDS011;54618;52.018;5.576;2023-01-28T06:24:19;1.00;;;0.70;;
67819;SDS011;54618;52.018;5.576;2023-01-28T06:26:45;1.17;;;0.88;;
67819;SDS011;54618;52.018;5.576;2023-01-28T06:29:10;0.90;;;0.80;;
67819;SDS011;54618;52.018;5.576;2023-01-28T06:31:36;1.33;;;0.90;;
67819;SDS011;54618;52.018;5.576;2023-01-28T06:34:01;1.05;;;0.80;;
67819;SDS011;54618;52.018;5.576;2023-01-28T06:36:28;0.98;;;0.60;;
67819;SDS011;54618;52.018;5.576;2023-01-28T06:38:54;0.55;;;0.50;;
67819;SDS011;54618;52.018;5.576;2023-01-28T06:41:19;0.95;;;0.60;;
67819;SDS011;54618;52.018;5.576;2023-01-28T06:43:45;0.55;;;0.40;;
67819;SDS011;54618;52.018;5.576;2023-01-28T06:46:10;0.77;;;0.60;;
67819;SDS011;54618;52.018;5.576;2023-01-28T06:48:36;0.60;;;0.50;;
67819;SDS011;54618;52.018;5.576;2023-01-28T06:51:01;0.80;;;0.50;;
67819;SDS011;54618;52.018;5.576;2023-01-28T06:53:27;0.50;;;0.50;;
67819;SDS011;54618;52.018;5.576;2023-01-28T06:55:53;0.88;;;0.50;;
67819;SDS011;54618;52.018;5.576;2023-01-28T06:58:18;0.80;;;0.45;;
67819;SDS011;54618;52.018;5.576;2023-01-28T07:00:44;0.50;;;0.50;;
67819;SDS011;54618;52.018;5.576;2023-01-28T07:03:09;0.40;;;0.40;;
67819;SDS011;54618;52.018;5.576;2023-01-28T07:05:35;0.52;;;0.45;;
67819;SDS011;54618;52.018;5.576;2023-01-28T07:08:00;0.60;;;0.50;;
67819;SDS011;54618;52.018;5.576;2023-01-28T07:10:26;0.52;;;0.40;;
67819;SDS011;54618;52.018;5.576;2023-01-28T07:12:52;0.60;;;0.40;;
67819;SDS011;54618;52.018;5.576;2023-01-28T07:15:18;0.60;;;0.47;;
67819;SDS011;54618;52.018;5.576;2023-01-28T07:17:43;0.43;;;0.40;;
67819;SDS011;54618;52.018;5.576;2023-01-28T07:20:10;0.40;;;0.40;;
67819;SDS011;54618;52.018;5.576;2023-01-28T07:22:37;0.40;;;0.40;;
67819;SDS011;54618;52.018;5.576;2023-01-28T07:25:05;0.65;;;0.50;;
67819;SDS011;54618;52.018;5.576;2023-01-28T07:27:32;0.73;;;0.40;;
67819;SDS011;54618;52.018;5.576;2023-01-28T07:29:58;0.40;;;0.40;;
67819;SDS011;54618;52.018;5.576;2023-01-28T07:32:23;0.55;;;0.43;;
67819;SDS011;54618;52.018;5.576;2023-01-28T07:34:51;1.60;;;0.30;;
67819;SDS011;54618;52.018;5.576;2023-01-28T07:37:17;0.75;;;0.32;;
67819;SDS011;54618;52.018;5.576;2023-01-28T07:39:43;0.52;;;0.45;;
67819;SDS011;54618;52.018;5.576;2023-01-28T07:42:08;0.50;;;0.50;;
67819;SDS011;54618;52.018;5.576;2023-01-28T07:44:34;0.40;;;0.40;;
67819;SDS011;54618;52.018;5.576;2023-01-28T07:47:00;0.45;;;0.40;;
67819;SDS011;54618;52.018;5.576;2023-01-28T07:49:26;0.65;;;0.40;;
67819;SDS011;54618;52.018;5.576;2023-01-28T07:51:52;0.40;;;0.40;;
67819;SDS011;54618;52.018;5.576;2023-01-28T07:54:17;0.75;;;0.40;;
67819;SDS011;54618;52.018;5.576;2023-01-28T07:56:43;1.02;;;0.50;;
67819;SDS011;54618;52.018;5.576;2023-01-28T07:59:08;0.63;;;0.50;;
67819;SDS011;54618;52.018;5.576;2023-01-28T08:01:34;0.60;;;0.40;;
67819;SDS011;54618;52.018;5.576;2023-01-28T08:03:59;0.50;;;0.50;;
67819;SDS011;54618;52.018;5.576;2023-01-28T08:06:27;0.73;;;0.40;;
67819;SDS011;54618;52.018;5.576;2023-01-28T08:08:52;0.55;;;0.43;;
67819;SDS011;54618;52.018;5.576;2023-01-28T08:11:18;0.38;;;0.30;;
67819;SDS011;54618;52.018;5.576;2023-01-28T08:13:44;0.40;;;0.40;;
67819;SDS011;54618;52.018;5.576;2023-01-28T08:16:09;0.77;;;0.50;;
67819;SDS011;54618;52.018;5.576;2023-01-28T08:18:35;0.50;;;0.40;;
67819;SDS011;54618;52.018;5.576;2023-01-28T08:21:00;0.40;;;0.40;;
67819;SDS011;54618;52.018;5.576;2023-01-28T08:23:26;0.68;;;0.47;;
67819;SDS011;54618;52.018;5.576;2023-01-28T08:25:52;0.50;;;0.40;;
67819;SDS011;54618;52.018;5.576;2023-01-28T08:28:18;0.63;;;0.40;;
67819;SDS011;54618;52.018;5.576;2023-01-28T08:30:45;0.50;;;0.40;;
67819;SDS011;54618;52.018;5.576;2023-01-28T08:33:11;0.35;;;0.35;;
67819;SDS011;54618;52.018;5.576;2023-01-28T08:35:38;0.50;;;0.40;;
67819;SDS011;54618;52.018;5.576;2023-01-28T08:38:05;0.32;;;0.32;;
67819;SDS011;54618;52.018;5.576;2023-01-28T08:40:31;0.60;;;0.47;;
67819;SDS011;54618;52.018;5.576;2023-01-28T08:42:57;0.50;;;0.47;;
67819;SDS011;54618;52.018;5.576;2023-01-28T08:45:23;0.60;;;0.50;;
67819;SDS011;54618;52.018;5.576;2023-01-28T08:48:03;0.40;;;0.40;;
67819;SDS011;54618;52.018;5.576;2023-01-28T08:50:31;0.40;;;0.38;;
67819;SDS011;54618;52.018;5.576;2023-01-28T08:53:00;0.60;;;0.50;;
67819;SDS011;54618;52.018;5.576;2023-01-28T08:55:27;0.50;;;0.50;;
67819;SDS011;54618;52.018;5.576;2023-01-28T08:57:53;0.40;;;0.40;;
67819;SDS011;54618;52.018;5.576;2023-01-28T09:00:19;0.35;;;0.30;;
67819;SDS011;54618;52.018;5.576;2023-01-28T09:02:45;0.40;;;0.40;;
67819;SDS011;54618;52.018;5.576;2023-01-28T09:05:11;0.77;;;0.40;;
67819;SDS011;54618;52.018;5.576;2023-01-28T09:07:37;0.65;;;0.50;;
67819;SDS011;54618;52.018;5.576;2023-01-28T09:10:03;0.73;;;0.40;;
67819;SDS011;54618;52.018;5.576;2023-01-28T09:12:30;0.65;;;0.50;;
67819;SDS011;54618;52.018;5.576;2023-01-28T09:14:56;0.43;;;0.40;;
67819;SDS011;54618;52.018;5.576;2023-01-28T09:17:22;0.77;;;0.50;;
67819;SDS011;54618;52.018;5.576;2023-01-28T09:19:48;0.85;;;0.50;;
67819;SDS011;54618;52.018;5.576;2023-01-28T09:22:14;0.65;;;0.50;;
67819;SDS011;54618;52.018;5.576;2023-01-28T09:24:39;0.40;;;0.40;;
67819;SDS011;54618;52.018;5.576;2023-01-28T09:27:05;1.95;;;0.50;;
67819;SDS011;54618;52.018;5.576;2023-01-28T09:29:32;0.45;;;0.40;;
67819;SDS011;54618;52.018;5.576;2023-01-28T09:31:59;0.60;;;0.40;;
67819;SDS011;54618;52.018;5.576;2023-01-28T09:34:24;1.73;;;0.50;;
67819;SDS011;54618;52.018;5.576;2023-01-28T09:36:50;0.88;;;0.40;;
67819;SDS011;54618;52.018;5.576;2023-01-28T09:39:16;0.32;;;0.32;;
67819;SDS011;54618;52.018;5.576;2023-01-28T09:41:54;0.55;;;0.40;;
67819;SDS011;54618;52.018;5.576;2023-01-28T09:47:01;0.47;;;0.47;;
67819;SDS011;54618;52.018;5.576;2023-01-28T09:49:34;0.60;;;0.30;;
67819;SDS011;54618;52.018;5.576;2023-01-28T09:52:12;0.40;;;0.40;;
67819;SDS011;54618;52.018;5.576;2023-01-28T09:54:42;0.55;;;0.40;;
67819;SDS011;54618;52.018;5.576;2023-01-28T09:57:16;0.80;;;0.50;;
67819;SDS011;54618;52.018;5.576;2023-01-28T10:10:52;0.98;;;0.40;;
67819;SDS011;54618;52.018;5.576;2023-01-28T10:16:08;1.50;;;0.40;;
67819;SDS011;54618;52.018;5.576;2023-01-28T10:21:14;0.88;;;0.50;;
67819;SDS011;54618;52.018;5.576;2023-01-28T10:26:10;0.68;;;0.30;;
67819;SDS011;54618;52.018;5.576;2023-01-28T10:28:53;0.40;;;0.40;;
67819;SDS011;54618;52.018;5.576;2023-01-28T10:31:22;0.60;;;0.43;;
67819;SDS011;54618;52.018;5.576;2023-01-28T10:33:54;0.95;;;0.55;;
67819;SDS011;54618;52.018;5.576;2023-01-28T10:36:20;1.52;;;0.50;;
67819;SDS011;54618;52.018;5.576;2023-01-28T10:38:47;0.73;;;0.40;;
67819;SDS011;54618;52.018;5.576;2023-01-28T10:41:14;2.80;;;0.98;;
67819;SDS011;54618;52.018;5.576;2023-01-28T10:43:44;1.00;;;0.60;;
67819;SDS011;54618;52.018;5.576;2023-01-28T10:46:13;2.10;;;0.50;;
67819;SDS011;54618;52.018;5.576;2023-01-28T10:48:45;0.85;;;0.50;;
67819;SDS011;54618;52.018;5.576;2023-01-28T10:51:13;1.48;;;0.40;;
67819;SDS011;54618;52.018;5.576;2023-01-28T10:56:10;0.60;;;0.40;;
67819;SDS011;54618;52.018;5.576;2023-01-28T10:58:47;0.70;;;0.50;;
67819;SDS011;54618;52.018;5.576;2023-01-28T11:01:25;0.95;;;0.52;;
67819;SDS011;54618;52.018;5.576;2023-01-28T11:04:02;0.95;;;0.52;;
67819;SDS011;54618;52.018;5.576;2023-01-28T11:06:29;2.42;;;0.50;;
67819;SDS011;54618;52.018;5.576;2023-01-28T11:08:55;0.95;;;0.40;;
67819;SDS011;54618;52.018;5.576;2023-01-28T11:11:23;0.85;;;0.50;;
67819;SDS011;54618;52.018;5.576;2023-01-28T11:13:50;0.55;;;0.40;;
67819;SDS011;54618;52.018;5.576;2023-01-28T11:16:18;0.40;;;0.38;;
67819;SDS011;54618;52.018;5.576;2023-01-28T11:18:49;0.52;;;0.40;;
67819;SDS011;54618;52.018;5.576;2023-01-28T11:21:28;0.93;;;0.50;;
67819;SDS011;54618;52.018;5.576;2023-01-28T11:24:02;1.10;;;0.50;;
67819;SDS011;54618;52.018;5.576;2023-01-28T11:26:39;1.55;;;0.40;;
67819;SDS011;54618;52.018;5.576;2023-01-28T11:29:22;0.80;;;0.40;;
67819;SDS011;54618;52.018;5.576;2023-01-28T11:31:54;0.60;;;0.40;;
67819;SDS011;54618;52.018;5.576;2023-01-28T11:34:24;0.75;;;0.50;;
67819;SDS011;54618;52.018;5.576;2023-01-28T11:37:12;0.98;;;0.50;;
67819;SDS011;54618;52.018;5.576;2023-01-28T11:39:42;0.50;;;0.43;;
67819;SDS011;54618;52.018;5.576;2023-01-28T11:42:12;0.50;;;0.50;;
67819;SDS011;54618;52.018;5.576;2023-01-28T11:44:39;1.50;;;0.50;;
67819;SDS011;54618;52.018;5.576;2023-01-28T11:52:59;2.38;;;0.60;;
67819;SDS011;54618;52.018;5.576;2023-01-28T11:58:48;3.67;;;0.68;;
67819;SDS011;54618;52.018;5.576;2023-01-28T12:01:32;0.85;;;0.50;;
67819;SDS011;54618;52.018;5.576;2023-01-28T12:04:11;1.38;;;0.65;;
67819;SDS011;54618;52.018;5.576;2023-01-28T12:06:57;0.70;;;0.50;;
67819;SDS011;54618;52.018;5.576;2023-01-28T12:09:41;0.77;;;0.50;;
67819;SDS011;54618;52.018;5.576;2023-01-28T12:15:27;1.20;;;0.60;;
67819;SDS011;54618;52.018;5.576;2023-01-28T12:18:28;1.38;;;0.60;;
67819;SDS011;54618;52.018;5.576;2023-01-28T12:21:05;1.38;;;0.50;;
67819;SDS011;54618;52.018;5.576;2023-01-28T12:26:47;1.25;;;0.47;;
67819;SDS011;54618;52.018;5.576;2023-01-28T12:29:23;0.98;;;0.50;;
67819;SDS011;54618;52.018;5.576;2023-01-28T12:32:12;0.73;;;0.52;;
67819;SDS011;54618;52.018;5.576;2023-01-28T12:43:01;1.00;;;0.40;;
67819;SDS011;54618;52.018;5.576;2023-01-28T12:45:39;1.42;;;0.55;;
67819;SDS011;54618;52.018;5.576;2023-01-28T12:48:17;1.13;;;0.60;;
67819;SDS011;54618;52.018;5.576;2023-01-28T12:50:50;1.35;;;0.60;;
67819;SDS011;54618;52.018;5.576;2023-01-28T12:58:41;0.88;;;0.60;;
67819;SDS011;54618;52.018;5.576;2023-01-28T13:01:20;0.93;;;0.50;;
67819;SDS011;54618;52.018;5.576;2023-01-28T13:04:03;1.25;;;0.50;;
67819;SDS011;54618;52.018;5.576;2023-01-28T13:06:40;1.52;;;0.50;;
67819;SDS011;54618;52.018;5.576;2023-01-28T13:09:16;0.68;;;0.43;;
67819;SDS011;54618;52.018;5.576;2023-01-28T13:11:43;2.35;;;0.60;;
67819;SDS011;54618;52.018;5.576;2023-01-28T13:14:10;2.95;;;0.60;;
67819;SDS011;54618;52.018;5.576;2023-01-28T13:16:37;2.63;;;0.80;;
67819;SDS011;54618;52.018;5.576;2023-01-28T13:19:03;1.60;;;0.80;;
67819;SDS011;54618;52.018;5.576;2023-01-28T13:21:47;4.00;;;0.50;;
67819;SDS011;54618;52.018;5.576;2023-01-28T13:26:43;3.08;;;0.60;;
67819;SDS011;54618;52.018;5.576;2023-01-28T13:31:41;1.88;;;0.52;;
67819;SDS011;54618;52.018;5.576;2023-01-28T13:34:11;2.58;;;0.57;;
67819;SDS011;54618;52.018;5.576;2023-01-28T13:37:14;2.30;;;0.70;;
67819;SDS011;54618;52.018;5.576;2023-01-28T13:39:57;1.52;;;0.50;;
67819;SDS011;54618;52.018;5.576;2023-01-28T13:42:30;2.25;;;0.73;;
67819;SDS011;54618;52.018;5.576;2023-01-28T13:47:42;1.25;;;0.50;;
67819;SDS011;54618;52.018;5.576;2023-01-28T13:50:17;1.30;;;0.50;;
67819;SDS011;54618;52.018;5.576;2023-01-28T13:52:56;1.05;;;0.60;;
67819;SDS011;54618;52.018;5.576;2023-01-28T13:55:26;1.58;;;0.60;;
67819;SDS011;54618;52.018;5.576;2023-01-28T14:20:03;2.60;;;0.60;;
67819;SDS011;54618;52.018;5.576;2023-01-28T14:22:29;2.47;;;0.77;;
67819;SDS011;54618;52.018;5.576;2023-01-28T14:24:55;2.38;;;0.68;;
67819;SDS011;54618;52.018;5.576;2023-01-28T14:27:30;1.27;;;0.60;;
67819;SDS011;54618;52.018;5.576;2023-01-28T14:32:46;1.00;;;0.60;;
67819;SDS011;54618;52.018;5.576;2023-01-28T14:35:16;2.20;;;0.80;;
67819;SDS011;54618;52.018;5.576;2023-01-28T14:37:46;1.20;;;0.60;;
67819;SDS011;54618;52.018;5.576;2023-01-28T14:40:12;1.13;;;0.52;;
67819;SDS011;54618;52.018;5.576;2023-01-28T14:42:44;1.50;;;0.80;;
67819;SDS011;54618;52.018;5.576;2023-01-28T14:45:24;1.75;;;0.70;;
67819;SDS011;54618;52.018;5.576;2023-01-28T14:48:28;0.95;;;0.60;;
67819;SDS011;54618;52.018;5.576;2023-01-28T14:59:48;1.08;;;0.60;;
67819;SDS011;54618;52.018;5.576;2023-01-28T15:02:19;1.67;;;0.80;;
67819;SDS011;54618;52.018;5.576;2023-01-28T15:04:49;1.23;;;0.60;;
67819;SDS011;54618;52.018;5.576;2023-01-28T15:07:17;1.17;;;0.60;;
67819;SDS011;54618;52.018;5.576;2023-01-28T15:10:00;2.05;;;0.70;;
67819;SDS011;54618;52.018;5.576;2023-01-28T15:12:32;1.00;;;0.50;;
67819;SDS011;54618;52.018;5.576;2023-01-28T15:15:10;1.13;;;0.57;;
67819;SDS011;54618;52.018;5.576;2023-01-28T15:17:45;1.55;;;0.75;;
67819;SDS011;54618;52.018;5.576;2023-01-28T15:20:19;1.40;;;0.60;;
67819;SDS011;54618;52.018;5.576;2023-01-28T15:22:47;1.38;;;0.80;;
67819;SDS011;54618;52.018;5.576;2023-01-28T15:25:15;4.43;;;0.90;;
67819;SDS011;54618;52.018;5.576;2023-01-28T15:27:42;1.45;;;0.70;;
67819;SDS011;54618;52.018;5.576;2023-01-28T15:30:18;4.68;;;0.65;;
67819;SDS011;54618;52.018;5.576;2023-01-28T15:33:05;1.55;;;0.63;;
67819;SDS011;54618;52.018;5.576;2023-01-28T15:35:36;1.20;;;0.60;;
67819;SDS011;54618;52.018;5.576;2023-01-28T15:38:10;1.88;;;0.60;;
67819;SDS011;54618;52.018;5.576;2023-01-28T15:40:39;3.13;;;0.68;;
67819;SDS011;54618;52.018;5.576;2023-01-28T15:43:13;1.75;;;0.55;;
67819;SDS011;54618;52.018;5.576;2023-01-28T15:45:45;3.40;;;0.80;;
67819;SDS011;54618;52.018;5.576;2023-01-28T15:48:12;1.15;;;0.60;;
67819;SDS011;54618;52.018;5.576;2023-01-28T15:50:39;1.20;;;0.73;;
67819;SDS011;54618;52.018;5.576;2023-01-28T15:53:08;1.30;;;0.60;;
67819;SDS011;54618;52.018;5.576;2023-01-28T15:55:41;1.23;;;0.70;;
67819;SDS011;54618;52.018;5.576;2023-01-28T15:58:15;1.00;;;0.57;;
67819;SDS011;54618;52.018;5.576;2023-01-28T16:00:41;1.20;;;0.60;;
67819;SDS011;54618;52.018;5.576;2023-01-28T16:03:07;1.58;;;0.68;;
67819;SDS011;54618;52.018;5.576;2023-01-28T16:05:40;2.03;;;0.60;;
67819;SDS011;54618;52.018;5.576;2023-01-28T16:08:08;0.70;;;0.50;;
67819;SDS011;54618;52.018;5.576;2023-01-28T16:10:53;2.65;;;0.70;;
67819;SDS011;54618;52.018;5.576;2023-01-28T16:13:21;2.50;;;0.70;;
67819;SDS011;54618;52.018;5.576;2023-01-28T16:15:52;2.55;;;0.75;;
67819;SDS011;54618;52.018;5.576;2023-01-28T16:18:24;3.33;;;0.70;;
67819;SDS011;54618;52.018;5.576;2023-01-28T16:21:01;5.80;;;1.20;;
67819;SDS011;54618;52.018;5.576;2023-01-28T16:23:30;3.35;;;0.90;;
67819;SDS011;54618;52.018;5.576;2023-01-28T16:25:57;2.03;;;0.75;;
67819;SDS011;54618;52.018;5.576;2023-01-28T16:30:56;3.22;;;0.80;;
67819;SDS011;54618;52.018;5.576;2023-01-28T16:33:22;1.75;;;0.90;;
67819;SDS011;54618;52.018;5.576;2023-01-28T16:35:48;3.55;;;0.70;;
67819;SDS011;54618;52.018;5.576;2023-01-28T16:38:14;2.78;;;0.80;;
67819;SDS011;54618;52.018;5.576;2023-01-28T16:40:43;3.05;;;0.95;;
67819;SDS011;54618;52.018;5.576;2023-01-28T16:43:10;2.03;;;0.70;;
67819;SDS011;54618;52.018;5.576;2023-01-28T16:45:36;1.98;;;0.60;;
67819;SDS011;54618;52.018;5.576;2023-01-28T16:48:01;1.70;;;0.70;;
67819;SDS011;54618;52.018;5.576;2023-01-28T16:50:27;6.22;;;2.67;;
67819;SDS011;54618;52.018;5.576;2023-01-28T16:52:53;19.48;;;6.97;;
67819;SDS011;54618;52.018;5.576;2023-01-28T16:55:20;39.15;;;15.00;;
67819;SDS011;54618;52.018;5.576;2023-01-28T16:57:47;35.20;;;14.75;;
67819;SDS011;54618;52.018;5.576;2023-01-28T17:00:14;30.80;;;13.55;;
67819;SDS011;54618;52.018;5.576;2023-01-28T17:02:42;29.17;;;12.45;;
67819;SDS011;54618;52.018;5.576;2023-01-28T17:05:08;35.25;;;13.57;;